Time;durP1;ratioP1;P1;durP2;ratioP2;P2;SDS_P1;SDS_P2;PMS_P1;PMS_P2;Temp;Humidity;BMP_temperature;BMP_pressure;BME280_temperature;BME280_humidity;BME280_pressure;Samples;Min_cycle;Max_cycle;Signal;HPM_P1;HPM_P2
2022/03/23 00:01:34;;;;;;;5.75;3.85;;;19.80;53.20;;;;;;4444512;32;20078;-71
2022/03/23 00:04:03;;;;;;;5.47;3.97;;;19.80;53.20;;;;;;4444672;32;20483;-73
2022/03/23 00:06:28;;;;;;;5.38;3.72;;;19.80;53.20;;;;;;4443863;32;20547;-72
2022/03/23 00:08:54;;;;;;;5.22;3.95;;;19.80;53.20;;;;;;4430974;32;20086;-73
2022/03/23 00:11:20;;;;;;;4.68;3.78;;;19.80;53.20;;;;;;4445027;32;20059;-73
2022/03/23 00:13:47;;;;;;;5.25;3.97;;;19.80;53.20;;;;;;4443885;32;20241;-73
2022/03/23 00:16:13;;;;;;;5.63;3.90;;;19.80;53.30;;;;;;4445034;32;20142;-73
2022/03/23 00:18:39;;;;;;;5.43;4.25;;;19.80;53.30;;;;;;4444751;32;20129;-73
2022/03/23 00:21:05;;;;;;;5.43;3.92;;;19.80;53.30;;;;;;4445049;32;20208;-72
2022/03/23 00:23:31;;;;;;;5.03;3.72;;;19.70;53.20;;;;;;4443677;32;20066;-73
2022/03/23 00:25:59;;;;;;;7.18;4.10;;;19.70;53.20;;;;;;4443749;32;20114;-72
2022/03/23 00:28:28;;;;;;;6.18;3.92;;;19.70;53.20;;;;;;4444488;32;20526;-73
2022/03/23 00:30:54;;;;;;;6.55;3.85;;;19.70;53.20;;;;;;4444386;32;20078;-73
2022/03/23 00:33:21;;;;;;;5.25;3.60;;;19.70;53.20;;;;;;4444682;32;20078;-73
2022/03/23 00:35:49;;;;;;;6.13;4.10;;;19.70;53.20;;;;;;4444739;32;20511;-73
2022/03/23 00:38:16;;;;;;;5.32;4.00;;;19.70;53.20;;;;;;4444845;32;20082;-73
2022/03/23 00:40:44;;;;;;;5.60;4.22;;;19.70;53.20;;;;;;4444816;32;20167;-73
2022/03/23 00:43:11;;;;;;;5.28;4.18;;;19.60;53.20;;;;;;4444609;32;20554;-72
2022/03/23 00:45:38;;;;;;;5.43;3.92;;;19.60;53.20;;;;;;4444693;32;20078;-73
2022/03/23 00:48:05;;;;;;;5.70;4.20;;;19.60;53.20;;;;;;4444653;32;20085;-73
2022/03/23 00:50:31;;;;;;;5.07;4.03;;;19.60;53.20;;;;;;4444713;32;20074;-73
2022/03/23 00:52:56;;;;;;;6.20;3.67;;;19.60;53.20;;;;;;4444779;32;20282;-73
2022/03/23 00:55:22;;;;;;;5.28;4.00;;;19.60;53.20;;;;;;4433756;32;20138;-73
2022/03/23 00:57:48;;;;;;;4.88;3.92;;;19.60;53.20;;;;;;4433689;32;20185;-73
2022/03/23 01:00:17;;;;;;;6.03;4.10;;;19.60;53.20;;;;;;4447202;32;20415;-72
2022/03/23 01:02:45;;;;;;;5.65;4.10;;;19.60;53.20;;;;;;4445894;32;20217;-73
2022/03/23 01:05:12;;;;;;;5.80;4.38;;;19.60;53.30;;;;;;4446107;32;20419;-73
2022/03/23 01:07:40;;;;;;;4.78;4.10;;;19.50;53.20;;;;;;4446603;32;20094;-72
2022/03/23 01:10:11;;;;;;;5.53;3.83;;;19.50;53.20;;;;;;4447147;32;20121;-72
2022/03/23 01:12:40;;;;;;;5.25;3.55;;;19.50;53.20;;;;;;4447565;32;20090;-72
2022/03/23 01:15:08;;;;;;;5.18;4.15;;;19.50;53.20;;;;;;4446511;32;20235;-72
2022/03/23 01:17:34;;;;;;;5.55;4.50;;;19.50;53.20;;;;;;4446567;32;20088;-73
2022/03/23 01:20:00;;;;;;;4.40;4.00;;;19.50;53.20;;;;;;4446613;32;20074;-73
2022/03/23 01:22:26;;;;;;;6.07;4.00;;;19.50;53.20;;;;;;4445384;32;20594;-72
2022/03/23 01:24:52;;;;;;;4.30;3.72;;;19.50;53.20;;;;;;4446506;32;20105;-73
2022/03/23 01:27:18;;;;;;;4.68;4.03;;;19.50;53.20;;;;;;4432196;32;20504;-73
2022/03/23 01:29:44;;;;;;;5.10;4.00;;;19.50;53.30;;;;;;4432475;32;20067;-73
2022/03/23 01:32:10;;;;;;;4.65;3.67;;;19.40;53.20;;;;;;4431973;32;20500;-73
2022/03/23 01:34:36;;;;;;;5.18;4.10;;;19.40;53.20;;;;;;4446536;32;20092;-72
2022/03/23 01:37:02;;;;;;;4.13;3.70;;;19.40;53.20;;;;;;4446973;32;20203;-73
2022/03/23 01:39:28;;;;;;;4.65;4.10;;;19.40;53.30;;;;;;4447081;32;20203;-73
2022/03/23 01:41:54;;;;;;;5.28;3.72;;;19.40;53.20;;;;;;4446438;32;20082;-72
2022/03/23 01:44:22;;;;;;;5.15;3.75;;;19.40;53.20;;;;;;4446803;32;20098;-73
2022/03/23 01:47:17;;;;;;;5.70;4.00;;;19.40;53.30;;;;;;4446960;32;20093;-73
2022/03/23 01:49:49;;;;;;;4.97;4.05;;;19.40;53.20;;;;;;4436618;32;20251;-73
2022/03/23 01:52:17;;;;;;;4.82;4.00;;;19.40;53.30;;;;;;4446713;32;20089;-73
2022/03/23 01:54:44;;;;;;;5.18;4.05;;;19.40;53.30;;;;;;4445751;32;20110;-72
2022/03/23 01:57:13;;;;;;;4.30;3.90;;;19.40;53.30;;;;;;4446402;32;20086;-73
2022/03/23 01:59:39;;;;;;;4.20;3.78;;;19.40;53.30;;;;;;4446849;32;20089;-73
2022/03/23 02:02:06;;;;;;;5.18;4.20;;;19.30;53.20;;;;;;4445087;32;20066;-72
2022/03/23 02:04:33;;;;;;;5.60;3.88;;;19.30;53.30;;;;;;4445889;32;20256;-73
2022/03/23 02:06:59;;;;;;;6.43;4.18;;;19.30;53.30;;;;;;4446339;32;20082;-72
2022/03/23 02:09:33;;;;;;;4.53;3.80;;;19.30;53.30;;;;;;4446581;32;20126;-73
2022/03/23 02:12:02;;;;;;;4.90;4.35;;;19.30;53.30;;;;;;4446635;32;20172;-73
2022/03/23 02:14:28;;;;;;;5.55;3.80;;;19.30;53.30;;;;;;4446546;32;20086;-73
2022/03/23 02:16:54;;;;;;;4.32;3.78;;;19.30;53.30;;;;;;4445226;32;20062;-73
2022/03/23 02:19:23;;;;;;;4.70;3.60;;;19.30;53.30;;;;;;4446529;32;20121;-73
2022/03/23 02:21:50;;;;;;;5.07;4.20;;;19.30;53.30;;;;;;4446296;32;20109;-73
2022/03/23 02:24:19;;;;;;;4.47;4.03;;;19.20;53.30;;;;;;4446298;32;20105;-73
2022/03/23 02:26:45;;;;;;;4.22;3.83;;;19.20;53.30;;;;;;4446271;32;20239;-73
2022/03/23 02:29:11;;;;;;;4.65;4.00;;;19.30;53.40;;;;;;4445092;32;20096;-73
2022/03/23 02:31:37;;;;;;;5.28;4.40;;;19.20;53.30;;;;;;4445650;32;20486;-72
2022/03/23 02:34:04;;;;;;;4.53;3.92;;;19.20;53.30;;;;;;4446176;32;20232;-73
2022/03/23 02:36:31;;;;;;;4.53;3.58;;;19.20;53.30;;;;;;4445792;32;20124;-73
2022/03/23 02:38:58;;;;;;;5.60;3.88;;;19.20;53.30;;;;;;4445118;32;20106;-73
2022/03/23 02:41:24;;;;;;;4.68;4.00;;;19.20;53.30;;;;;;4446091;32;20106;-73
2022/03/23 02:43:51;;;;;;;4.47;3.70;;;19.20;53.30;;;;;;4445874;32;20082;-73
2022/03/23 02:46:19;;;;;;;5.55;4.13;;;19.20;53.40;;;;;;4446040;32;20069;-73
2022/03/23 02:48:46;;;;;;;4.60;3.92;;;19.20;53.30;;;;;;4445817;32;20220;-73
2022/03/23 02:51:13;;;;;;;4.45;4.05;;;19.20;53.40;;;;;;4445849;32;20475;-73
2022/03/23 03:02:35;;;;;;;4.10;3.70;;;19.10;53.40;;;;;;4445038;32;20152;-73
2022/03/23 03:05:03;;;;;;;3.90;3.47;;;19.10;53.40;;;;;;4444732;32;20520;-73
2022/03/23 03:08:44;;;;;;;4.63;3.88;;;19.10;53.40;;;;;;4445569;32;20078;-73
2022/03/23 03:10:15;;;;;;;4.50;3.47;;;19.10;53.40;;;;;;4445742;32;20081;-73
2022/03/23 03:12:42;;;;;;;4.43;3.50;;;19.10;53.40;;;;;;4445678;32;20081;-73
2022/03/23 03:15:10;;;;;;;4.68;3.83;;;19.10;53.40;;;;;;4445492;32;20081;-73
2022/03/23 03:17:36;;;;;;;4.32;3.90;;;19.10;53.50;;;;;;4445209;32;20482;-73
2022/03/23 03:20:04;;;;;;;4.35;3.58;;;19.00;53.40;;;;;;4445084;32;20141;-73
2022/03/23 03:22:34;;;;;;;5.60;3.90;;;19.00;53.40;;;;;;4445195;32;20269;-73
2022/03/23 03:25:00;;;;;;;4.75;3.80;;;19.00;53.40;;;;;;4445677;32;20125;-73
2022/03/23 03:27:26;;;;;;;4.50;3.83;;;19.00;53.40;;;;;;4445412;32;20243;-72
2022/03/23 03:29:52;;;;;;;5.00;3.50;;;19.00;53.40;;;;;;4445077;32;20093;-73
2022/03/23 03:32:18;;;;;;;4.43;3.85;;;19.00;53.40;;;;;;4443831;32;20236;-73
2022/03/23 03:34:44;;;;;;;4.00;3.60;;;19.00;53.40;;;;;;4445089;32;20090;-73
2022/03/23 03:37:10;;;;;;;4.07;3.47;;;19.00;53.40;;;;;;4445375;32;20184;-73
2022/03/23 03:39:37;;;;;;;4.20;3.70;;;19.00;53.40;;;;;;4444989;32;20132;-73
2022/03/23 03:42:04;;;;;;;4.97;3.83;;;19.00;53.40;;;;;;4443819;32;20097;-73
2022/03/23 03:44:29;;;;;;;4.90;4.00;;;19.00;53.40;;;;;;4445313;32;20086;-73
2022/03/23 03:46:55;;;;;;;4.55;4.03;;;19.00;53.40;;;;;;4445157;32;20070;-73
2022/03/23 03:49:22;;;;;;;4.65;3.65;;;19.00;53.40;;;;;;4445110;32;20097;-73
2022/03/23 03:51:48;;;;;;;4.90;3.78;;;18.90;53.30;;;;;;4445189;32;20074;-73
2022/03/23 03:54:14;;;;;;;4.78;3.75;;;18.90;53.40;;;;;;4444265;32;20132;-73
2022/03/23 03:56:40;;;;;;;3.90;3.30;;;18.90;53.40;;;;;;4443693;32;20411;-73
2022/03/23 03:59:06;;;;;;;4.15;3.60;;;18.90;53.30;;;;;;4445028;32;20081;-72
2022/03/23 04:01:31;;;;;;;3.85;3.45;;;18.90;53.40;;;;;;4444131;32;20085;-73
2022/03/23 04:03:57;;;;;;;3.90;3.38;;;18.90;53.40;;;;;;4429812;32;20073;-73
2022/03/23 04:06:23;;;;;;;4.50;3.60;;;18.90;53.30;;;;;;4443998;32;20211;-73
2022/03/23 04:08:49;;;;;;;3.85;3.45;;;18.90;53.40;;;;;;4429955;32;20082;-73
2022/03/23 04:11:15;;;;;;;4.07;3.67;;;18.90;53.40;;;;;;4443598;32;20082;-73
2022/03/23 04:13:41;;;;;;;5.18;3.60;;;18.90;53.30;;;;;;4444160;32;20535;-73
2022/03/23 04:16:07;;;;;;;3.88;3.33;;;18.90;53.40;;;;;;4444211;32;20062;-73
2022/03/23 04:18:33;;;;;;;4.03;3.30;;;18.80;53.30;;;;;;4443940;32;20615;-73
2022/03/23 04:20:59;;;;;;;4.97;3.80;;;18.80;53.30;;;;;;4443775;32;20126;-73
2022/03/23 04:23:25;;;;;;;3.50;3.20;;;18.80;53.30;;;;;;4433351;32;20084;-73
2022/03/23 04:25:50;;;;;;;4.25;3.30;;;18.80;53.30;;;;;;4444158;32;20215;-72
2022/03/23 04:28:16;;;;;;;3.78;3.42;;;18.80;53.30;;;;;;4444736;32;20516;-73
2022/03/23 04:30:44;;;;;;;4.28;3.78;;;18.80;53.30;;;;;;4447174;32;20124;-73
2022/03/23 04:33:10;;;;;;;5.10;3.30;;;18.80;53.30;;;;;;4447650;32;20066;-72
2022/03/23 04:35:35;;;;;;;3.90;3.30;;;18.80;53.30;;;;;;4434082;32;20089;-73
2022/03/23 04:38:01;;;;;;;3.33;3.03;;;18.80;53.30;;;;;;4447948;32;20163;-74
2022/03/23 04:40:28;;;;;;;3.40;3.10;;;18.80;53.30;;;;;;4448108;32;20085;-74
2022/03/23 04:42:54;;;;;;;3.67;3.35;;;18.80;53.30;;;;;;4447734;32;20116;-76
2022/03/23 04:45:20;;;;;;;3.42;3.13;;;18.80;53.30;;;;;;4447866;32;20233;-74
2022/03/23 04:47:46;;;;;;;4.05;3.50;;;18.80;53.30;;;;;;4433515;32;20112;-74
2022/03/23 04:50:13;;;;;;;5.03;3.22;;;18.80;53.30;;;;;;4447775;32;20096;-73
2022/03/23 04:52:40;;;;;;;4.20;3.75;;;18.80;53.30;;;;;;4433320;32;20117;-74
2022/03/23 04:55:09;;;;;;;5.20;3.60;;;18.80;53.30;;;;;;4447034;32;20089;-73
2022/03/23 04:57:34;;;;;;;4.93;4.03;;;18.80;53.40;;;;;;4432874;32;20066;-74
2022/03/23 05:00:02;;;;;;;5.95;3.58;;;18.80;53.40;;;;;;4446989;32;20516;-73
2022/03/23 05:02:28;;;;;;;3.88;3.40;;;18.80;53.40;;;;;;4446412;32;20207;-74
2022/03/23 05:04:54;;;;;;;3.50;3.00;;;18.80;53.40;;;;;;4437021;32;20151;-74
2022/03/23 05:07:20;;;;;;;6.85;3.60;;;18.70;53.40;;;;;;4446703;32;20105;-74
2022/03/23 05:09:46;;;;;;;5.20;3.35;;;18.70;53.40;;;;;;4446819;32;20132;-74
2022/03/23 05:12:11;;;;;;;4.18;3.30;;;18.70;53.50;;;;;;4446032;32;20228;-74
2022/03/23 05:14:37;;;;;;;4.80;3.13;;;18.70;53.50;;;;;;4447190;32;20224;-74
2022/03/23 05:17:04;;;;;;;3.80;3.30;;;18.70;53.50;;;;;;4447373;32;20129;-74
2022/03/23 05:19:31;;;;;;;3.53;3.20;;;18.70;53.50;;;;;;4447589;32;20094;-74
2022/03/23 05:21:58;;;;;;;4.00;3.28;;;18.70;53.50;;;;;;4447176;32;20224;-74
2022/03/23 05:24:24;;;;;;;3.60;3.00;;;18.60;53.40;;;;;;4447390;32;20062;-74
2022/03/23 05:26:51;;;;;;;3.60;3.15;;;18.60;53.40;;;;;;4447032;32;20096;-74
2022/03/23 05:29:16;;;;;;;3.88;2.88;;;18.60;53.40;;;;;;4447237;32;20589;-74
2022/03/23 05:31:42;;;;;;;3.70;3.28;;;18.60;53.40;;;;;;4446813;32;20098;-74
2022/03/23 05:34:08;;;;;;;3.78;3.38;;;18.60;53.40;;;;;;4447131;32;20487;-74
2022/03/23 05:36:34;;;;;;;3.35;3.03;;;18.60;53.50;;;;;;4447156;32;20104;-74
2022/03/23 05:39:00;;;;;;;4.00;3.33;;;18.60;53.40;;;;;;4446969;32;20400;-74
2022/03/23 05:41:26;;;;;;;5.10;3.28;;;18.60;53.40;;;;;;4446902;32;20070;-74
2022/03/23 05:43:52;;;;;;;3.80;3.40;;;18.60;53.40;;;;;;4446726;32;20377;-74
2022/03/23 05:46:18;;;;;;;4.60;3.47;;;18.60;53.40;;;;;;4445679;32;20113;-74
2022/03/23 05:48:44;;;;;;;4.55;3.22;;;18.60;53.40;;;;;;4445650;32;20106;-74
2022/03/23 05:51:10;;;;;;;3.35;3.05;;;18.60;53.40;;;;;;4447172;32;20113;-74
2022/03/23 05:53:36;;;;;;;4.00;3.53;;;18.60;53.40;;;;;;4445855;32;20078;-74
2022/03/23 05:56:07;;;;;;;3.83;3.33;;;18.60;53.40;;;;;;4446833;32;20134;-74
2022/03/23 05:58:34;;;;;;;4.65;3.15;;;18.50;53.40;;;;;;4445824;32;20554;-74
2022/03/23 06:01:02;;;;;;;3.67;3.20;;;18.50;53.40;;;;;;4446114;32;20332;-75
2022/03/23 06:03:28;;;;;;;5.15;3.30;;;18.50;53.40;;;;;;4445765;32;20082;-72
2022/03/23 06:05:54;;;;;;;3.80;2.75;;;18.50;53.40;;;;;;4446343;32;20125;-75
2022/03/23 06:08:20;;;;;;;3.58;3.22;;;18.50;53.40;;;;;;4446745;32;20224;-75
2022/03/23 06:10:46;;;;;;;3.45;3.15;;;18.50;53.40;;;;;;4446945;32;20141;-75
2022/03/23 06:13:12;;;;;;;3.72;3.10;;;18.50;53.50;;;;;;4446302;32;20503;-74
2022/03/23 06:15:38;;;;;;;3.97;3.22;;;18.50;53.40;;;;;;4446560;32;20070;-75
2022/03/23 06:18:04;;;;;;;3.80;3.13;;;18.50;53.40;;;;;;4446695;32;20153;-75
2022/03/23 06:20:30;;;;;;;3.83;3.00;;;18.50;53.40;;;;;;4446722;32;20055;-74
2022/03/23 06:22:56;;;;;;;3.22;2.90;;;18.50;53.40;;;;;;4446395;32;20125;-75
2022/03/23 06:25:24;;;;;;;4.15;3.45;;;18.50;53.40;;;;;;4446433;32;20063;-74
2022/03/23 06:27:51;;;;;;;3.10;2.72;;;18.50;53.40;;;;;;4446309;32;20070;-75
2022/03/23 06:30:16;;;;;;;3.70;3.30;;;18.50;53.40;;;;;;4446389;32;20055;-74
2022/03/23 06:32:42;;;;;;;3.38;3.05;;;18.50;53.40;;;;;;4446192;32;20070;-75
2022/03/23 06:35:08;;;;;;;3.83;3.30;;;18.40;53.40;;;;;;4445976;32;20085;-74
2022/03/23 06:37:35;;;;;;;3.22;2.72;;;18.40;53.40;;;;;;4445426;32;20355;-74
2022/03/23 06:40:02;;;;;;;3.42;2.80;;;18.40;53.40;;;;;;4445629;32;20093;-74
2022/03/23 06:42:28;;;;;;;3.38;2.90;;;18.40;53.40;;;;;;4445218;32;20516;-74
2022/03/23 06:44:54;;;;;;;3.17;2.88;;;18.40;53.50;;;;;;4445389;32;20120;-75
2022/03/23 06:47:20;;;;;;;3.55;3.25;;;18.40;53.40;;;;;;4445357;32;20093;-75
2022/03/23 06:49:46;;;;;;;3.92;3.15;;;18.40;53.40;;;;;;4445389;32;20066;-74
2022/03/23 06:52:12;;;;;;;3.17;2.88;;;18.40;53.40;;;;;;4444668;32;20062;-75
2022/03/23 06:54:38;;;;;;;6.40;5.72;;;18.40;53.40;;;;;;4431370;32;20228;-75
2022/03/23 06:57:04;;;;;;;6.65;5.40;;;18.40;53.40;;;;;;4445083;32;20446;-75
2022/03/23 06:59:30;;;;;;;5.60;4.93;;;18.40;53.30;;;;;;4445135;32;20090;-73
2022/03/23 07:01:56;;;;;;;11.27;6.45;;;18.40;53.30;;;;;;4444653;32;20080;-74
2022/03/23 07:04:24;;;;;;;9.25;7.35;;;18.40;53.40;;;;;;4427746;32;20089;-73
2022/03/23 07:06:52;;;;;;;8.90;7.53;;;18.40;53.50;;;;;;4429459;32;20074;-74
2022/03/23 07:09:33;;;;;;;8.80;7.45;;;18.40;53.50;;;;;;4429286;32;20158;-75
2022/03/23 07:12:00;;;;;;;7.95;7.15;;;18.40;53.50;;;;;;4429797;32;20508;-74
2022/03/23 07:14:30;;;;;;;8.75;7.78;;;18.40;53.50;;;;;;4442077;32;20116;-74
2022/03/23 07:16:56;;;;;;;8.88;7.82;;;18.40;53.50;;;;;;4430476;32;20416;-74
2022/03/23 07:19:22;;;;;;;12.98;8.18;;;18.40;53.50;;;;;;4442073;32;20090;-75
2022/03/23 07:21:49;;;;;;;8.00;7.03;;;18.40;53.90;;;;;;4429885;32;20420;-75
2022/03/23 07:24:15;;;;;;;8.40;7.50;;;18.40;54.00;;;;;;4441755;32;20240;-74
2022/03/23 07:26:41;;;;;;;8.95;6.47;;;18.40;54.10;;;;;;4430285;32;20244;-74
2022/03/23 07:29:07;;;;;;;8.75;7.28;;;18.40;54.00;;;;;;4441920;32;20092;-74
2022/03/23 07:31:34;;;;;;;8.93;6.93;;;18.40;54.00;;;;;;4429740;32;20479;-74
2022/03/23 07:34:02;;;;;;;9.05;7.63;;;18.50;54.10;;;;;;4429872;32;20090;-74
2022/03/23 07:36:28;;;;;;;8.00;7.20;;;18.50;54.10;;;;;;4429635;32;20164;-74
2022/03/23 07:38:54;;;;;;;8.27;6.57;;;18.60;54.10;;;;;;4429610;32;20114;-74
2022/03/23 07:41:20;;;;;;;9.95;6.70;;;18.60;53.90;;;;;;4429641;32;20090;-75
2022/03/23 07:43:49;;;;;;;12.55;7.10;;;18.70;53.90;;;;;;4441593;32;20078;-73
2022/03/23 07:46:16;;;;;;;8.68;6.38;;;18.80;53.80;;;;;;4429843;32;20255;-75
2022/03/23 07:48:42;;;;;;;10.38;6.50;;;18.90;53.60;;;;;;4429635;32;20571;-77
2022/03/23 07:51:08;;;;;;;12.90;7.38;;;19.00;53.50;;;;;;4429278;32;20090;-75
2022/03/23 07:53:34;;;;;;;10.20;6.25;;;19.20;53.40;;;;;;4429704;32;20196;-73
2022/03/23 07:56:00;;;;;;;14.30;6.03;;;19.30;53.20;;;;;;4429690;32;20066;-74
2022/03/23 07:58:25;;;;;;;9.20;6.05;;;19.40;53.20;;;;;;4429414;32;20167;-74
2022/03/23 08:00:51;;;;;;;10.60;5.72;;;19.50;52.90;;;;;;4440768;32;20479;-76
2022/03/23 08:03:18;;;;;;;10.43;5.97;;;19.60;52.70;;;;;;4429617;32;20074;-74
2022/03/23 08:05:44;;;;;;;7.50;5.70;;;19.70;52.50;;;;;;4441484;32;20090;-73
2022/03/23 08:08:10;;;;;;;10.75;5.82;;;19.80;52.40;;;;;;4444407;32;20424;-70
2022/03/23 08:10:43;;;;;;;7.22;5.40;;;19.80;52.10;;;;;;4445170;32;20085;-74
2022/03/23 08:13:10;;;;;;;14.03;5.43;;;19.90;52.10;;;;;;4444225;32;20086;-78
2022/03/23 08:15:36;;;;;;;8.32;4.80;;;20.00;52.10;;;;;;4444532;32;20385;-75
2022/03/23 08:18:03;;;;;;;10.85;4.90;;;20.00;52.10;;;;;;4444876;32;20063;-75
2022/03/23 08:20:37;;;;;;;13.38;4.55;;;20.10;51.90;;;;;;4444757;32;20097;-74
2022/03/23 08:23:15;;;;;;;7.40;4.50;;;20.20;51.70;;;;;;4430896;32;20086;-75
2022/03/23 08:25:42;;;;;;;8.70;4.75;;;20.30;51.50;;;;;;4444978;32;20070;-75
2022/03/23 08:28:10;;;;;;;7.68;4.60;;;20.40;51.40;;;;;;4444816;32;20543;-76
2022/03/23 08:30:36;;;;;;;9.18;4.60;;;20.30;51.30;;;;;;4444527;32;20192;-77
2022/03/23 08:33:03;;;;;;;9.55;4.80;;;20.40;51.30;;;;;;4443535;32;20701;-73
2022/03/23 08:35:30;;;;;;;12.80;4.18;;;20.40;51.40;;;;;;4444829;32;20074;-78
2022/03/23 08:37:57;;;;;;;7.22;4.72;;;20.40;51.60;;;;;;4444701;32;20113;-72
2022/03/23 08:40:23;;;;;;;9.82;4.97;;;20.30;51.80;;;;;;4443222;32;20129;-75
2022/03/23 08:42:49;;;;;;;9.15;5.05;;;20.30;51.90;;;;;;4444231;32;20208;-75
2022/03/23 08:45:16;;;;;;;6.85;4.82;;;20.20;52.10;;;;;;4444567;32;20538;-75
2022/03/23 08:47:43;;;;;;;11.15;5.90;;;20.20;52.30;;;;;;4444540;32;20074;-76
2022/03/23 08:50:11;;;;;;;9.38;6.05;;;20.10;52.00;;;;;;4444575;32;20101;-75
2022/03/23 08:52:38;;;;;;;8.90;6.57;;;20.10;51.80;;;;;;4444275;32;20086;-75
2022/03/23 08:55:06;;;;;;;12.18;7.35;;;20.10;51.80;;;;;;4444533;32;20117;-76
2022/03/23 08:57:32;;;;;;;10.40;7.68;;;20.00;51.70;;;;;;4444511;32;20100;-74
2022/03/23 08:59:58;;;;;;;10.32;7.70;;;20.00;51.70;;;;;;4430449;32;20074;-75
2022/03/23 09:02:24;;;;;;;13.30;7.40;;;19.90;51.90;;;;;;4429858;32;20204;-76
2022/03/23 09:04:50;;;;;;;12.57;7.53;;;19.90;52.00;;;;;;4433824;32;20105;-76
2022/03/23 09:07:16;;;;;;;9.43;6.88;;;19.90;52.20;;;;;;4444502;32;20093;-72
2022/03/23 09:09:42;;;;;;;16.15;8.60;;;19.80;52.20;;;;;;4443420;32;20066;-71
2022/03/23 09:12:09;;;;;;;10.07;7.65;;;19.80;52.30;;;;;;4444134;32;20487;-73
2022/03/23 09:14:35;;;;;;;13.23;8.27;;;19.80;52.30;;;;;;4443789;32;20393;-70
2022/03/23 09:17:02;;;;;;;11.25;8.40;;;19.70;52.40;;;;;;4446284;32;20096;-74
2022/03/23 09:19:29;;;;;;;12.40;9.35;;;19.70;52.40;;;;;;4446933;32;20073;-74
2022/03/23 09:21:55;;;;;;;14.32;9.35;;;19.70;52.40;;;;;;4447230;32;20125;-74
2022/03/23 09:24:21;;;;;;;10.60;8.85;;;19.60;52.40;;;;;;4447196;32;20380;-74
2022/03/23 09:26:47;;;;;;;12.73;8.38;;;19.60;52.50;;;;;;4446175;32;20089;-73
2022/03/23 09:29:13;;;;;;;12.05;8.73;;;19.60;52.50;;;;;;4446065;32;20136;-73
2022/03/23 09:31:39;;;;;;;16.02;8.55;;;19.60;53.50;;;;;;4446544;32;20431;-73
2022/03/23 09:34:06;;;;;;;16.10;8.27;;;19.50;52.60;;;;;;4445990;32;20070;-73
2022/03/23 09:39:18;;;;;;;14.85;7.70;;;19.50;52.70;;;;;;4447194;32;20067;-74
2022/03/23 09:41:48;;;;;;;13.20;8.00;;;19.50;52.70;;;;;;4446836;32;20077;-73
2022/03/23 09:44:15;;;;;;;10.68;7.85;;;19.50;52.70;;;;;;4445647;32;20093;-73
2022/03/23 09:46:43;;;;;;;10.70;7.15;;;19.50;52.80;;;;;;4446906;32;20082;-73
2022/03/23 09:49:10;;;;;;;8.80;6.90;;;19.50;52.80;;;;;;4446656;32;20074;-74
2022/03/23 09:51:38;;;;;;;13.10;6.60;;;19.40;52.80;;;;;;4445515;32;20101;-73
2022/03/23 09:54:05;;;;;;;8.85;6.80;;;19.40;52.80;;;;;;4446814;32;20066;-73
2022/03/23 09:56:31;;;;;;;8.43;6.78;;;19.40;52.90;;;;;;4446753;32;20244;-73
2022/03/23 09:58:56;;;;;;;8.50;6.85;;;19.40;52.80;;;;;;4446728;32;20423;-74
2022/03/23 10:01:28;;;;;;;10.18;6.45;;;19.40;52.90;;;;;;4445298;32;20082;-73
2022/03/23 10:04:14;;;;;;;7.50;6.25;;;19.40;52.90;;;;;;4446164;32;20108;-73
2022/03/23 10:07:18;;;;;;;9.77;6.22;;;19.40;52.90;;;;;;4446659;32;20094;-73
2022/03/23 10:10:22;;;;;;;9.13;6.05;;;19.40;52.90;;;;;;4446572;32;20221;-73
2022/03/23 10:13:20;;;;;;;7.05;5.45;;;19.40;52.90;;;;;;4446622;32;20074;-74
2022/03/23 10:16:07;;;;;;;9.88;5.57;;;19.30;52.80;;;;;;4446658;32;20535;-74
2022/03/23 10:18:56;;;;;;;6.60;4.95;;;19.30;52.90;;;;;;4446577;32;20074;-74
2022/03/23 10:21:27;;;;;;;5.93;5.32;;;19.30;52.80;;;;;;4446358;32;20123;-74
2022/03/23 10:23:59;;;;;;;7.75;5.50;;;19.30;52.90;;;;;;4446235;32;20101;-74
2022/03/23 10:26:26;;;;;;;7.50;5.10;;;19.30;52.90;;;;;;4445444;32;20156;-74
2022/03/23 10:28:52;;;;;;;8.52;5.30;;;19.30;52.90;;;;;;4446066;32;20188;-74
2022/03/23 10:31:21;;;;;;;7.00;5.55;;;19.30;52.90;;;;;;4432068;32;20624;-74
2022/03/23 10:34:08;;;;;;;7.28;5.32;;;19.30;52.90;;;;;;4446197;32;20385;-74
2022/03/23 10:36:43;;;;;;;5.57;4.93;;;19.30;52.80;;;;;;4446330;32;20215;-73
2022/03/23 10:39:11;;;;;;;8.23;5.10;;;19.30;52.80;;;;;;4446216;32;20137;-74
2022/03/23 10:41:37;;;;;;;5.80;4.75;;;19.30;52.80;;;;;;4446154;32;20082;-73
2022/03/23 10:44:15;;;;;;;8.00;4.95;;;19.30;52.80;;;;;;4445792;32;20082;-73
2022/03/23 10:46:43;;;;;;;6.32;5.20;;;19.20;52.70;;;;;;4432148;32;20085;-73
2022/03/23 10:49:10;;;;;;;9.48;5.10;;;19.20;52.70;;;;;;4446149;32;20082;-73
2022/03/23 10:51:37;;;;;;;8.43;5.13;;;19.20;53.60;;;;;;4446021;32;20162;-74
2022/03/23 10:54:17;;;;;;;9.98;5.22;;;19.20;52.70;;;;;;4445980;32;20528;-74
2022/03/23 10:56:43;;;;;;;5.20;4.32;;;19.20;52.60;;;;;;4445797;32;20089;-73
2022/03/23 10:59:22;;;;;;;5.15;4.60;;;19.20;52.60;;;;;;4445545;32;20070;-74
2022/03/23 11:02:08;;;;;;;6.25;4.63;;;19.20;52.60;;;;;;4445215;32;20546;-74
2022/03/23 11:04:53;;;;;;;5.88;4.70;;;19.20;52.60;;;;;;4445575;32;20086;-73
2022/03/23 11:07:28;;;;;;;9.35;5.18;;;19.20;52.50;;;;;;4444709;32;20086;-73
2022/03/23 11:15:49;;;;;;;5.30;4.50;;;19.20;52.60;;;;;;4445101;32;20062;-74
2022/03/23 11:18:20;;;;;;;5.55;4.78;;;19.10;52.50;;;;;;4445213;32;20366;-73
2022/03/23 11:20:49;;;;;;;6.13;4.32;;;19.20;52.50;;;;;;4445151;32;20625;-74
2022/03/23 11:23:16;;;;;;;5.07;3.80;;;19.20;52.50;;;;;;4444805;32;20122;-73
2022/03/23 11:25:42;;;;;;;8.55;4.65;;;19.10;52.50;;;;;;4444590;32;20279;-74
2022/03/23 11:28:09;;;;;;;7.50;4.45;;;19.20;52.50;;;;;;4444719;32;20132;-73
2022/03/23 11:30:37;;;;;;;5.45;4.45;;;19.20;52.50;;;;;;4431005;32;20141;-73
2022/03/23 11:33:07;;;;;;;6.63;4.80;;;19.20;52.50;;;;;;4444451;32;20085;-73
2022/03/23 11:35:35;;;;;;;6.65;4.20;;;19.20;52.50;;;;;;4444638;32;20220;-74
2022/03/23 11:38:03;;;;;;;5.00;3.90;;;19.20;52.40;;;;;;4444544;32;20590;-74
2022/03/23 11:40:30;;;;;;;5.53;4.53;;;19.20;52.40;;;;;;4431052;32;20251;-74
2022/03/23 11:42:57;;;;;;;5.63;4.57;;;19.20;52.40;;;;;;4444374;32;20632;-74
2022/03/23 11:45:24;;;;;;;5.75;4.72;;;19.20;52.40;;;;;;4444631;32;20559;-74
2022/03/23 11:48:18;;;;;;;7.60;5.00;;;19.20;52.30;;;;;;4430827;32;20089;-74
2022/03/23 11:50:52;;;;;;;6.63;4.20;;;19.20;52.30;;;;;;4444486;32;20074;-74
2022/03/23 11:53:40;;;;;;;6.18;4.38;;;19.20;52.40;;;;;;4444811;32;20219;-74
2022/03/23 11:56:06;;;;;;;6.72;4.43;;;19.20;52.30;;;;;;4444432;32;20113;-74
2022/03/23 11:58:36;;;;;;;5.93;4.20;;;19.20;52.30;;;;;;4444554;32;20078;-74
2022/03/23 12:01:11;;;;;;;7.25;4.45;;;19.20;52.40;;;;;;4444422;32;20096;-74
2022/03/23 12:03:40;;;;;;;5.25;4.47;;;19.20;52.30;;;;;;4430421;32;20482;-74
2022/03/23 12:06:33;;;;;;;4.78;4.30;;;19.20;52.30;;;;;;4444818;32;20108;-74
2022/03/23 12:08:59;;;;;;;5.90;4.35;;;19.20;52.30;;;;;;4438550;32;20200;-74
2022/03/23 12:11:43;;;;;;;6.53;4.05;;;19.10;52.20;;;;;;4444916;32;20145;-74
2022/03/23 12:14:22;;;;;;;6.07;4.22;;;19.10;52.10;;;;;;4444920;32;20138;-74
2022/03/23 12:16:51;;;;;;;4.60;4.00;;;19.20;52.20;;;;;;4445027;32;20074;-74
2022/03/23 12:19:33;;;;;;;6.53;3.75;;;19.10;52.20;;;;;;4444666;32;20101;-74
2022/03/23 12:22:05;;;;;;;5.70;3.90;;;19.20;52.30;;;;;;4444925;32;20078;-74
2022/03/23 12:25:05;;;;;;;5.10;4.10;;;19.20;52.20;;;;;;4444748;32;20156;-74
2022/03/23 12:27:42;;;;;;;5.90;3.95;;;19.10;52.20;;;;;;4445030;32;20077;-74
2022/03/23 12:30:18;;;;;;;5.53;3.83;;;19.20;52.30;;;;;;4444886;32;20074;-74
2022/03/23 12:32:44;;;;;;;5.13;3.97;;;19.20;52.30;;;;;;4444353;32;20078;-74
2022/03/23 12:35:10;;;;;;;4.60;3.63;;;19.20;52.30;;;;;;4444736;32;20054;-74
2022/03/23 12:37:39;;;;;;;6.00;3.60;;;19.20;52.20;;;;;;4444687;32;20243;-74
2022/03/23 12:40:11;;;;;;;5.30;3.70;;;19.10;52.10;;;;;;4444682;32;20106;-74
2022/03/23 12:42:44;;;;;;;5.68;3.70;;;19.20;52.10;;;;;;4444658;32;20192;-73
2022/03/23 12:45:22;;;;;;;;;;;19.20;52.20;;;;;;4445132;32;20096;-74
2022/03/23 12:47:55;;;;;;;5.47;3.40;;;19.20;53.10;;;;;;4444388;32;19982;-74
2022/03/23 12:59:17;;;;;;;6.20;3.53;;;19.20;52.10;;;;;;4447754;32;20141;-74
2022/03/23 13:01:45;;;;;;;5.50;3.60;;;19.20;52.10;;;;;;4446975;32;20204;-74
2022/03/23 13:04:43;;;;;;;5.03;3.85;;;19.20;52.10;;;;;;4447258;32;20495;-74
2022/03/23 13:07:27;;;;;;;5.85;3.50;;;19.20;52.00;;;;;;4405957;32;20385;-74
2022/03/23 13:10:05;;;;;;;6.97;3.75;;;19.20;52.00;;;;;;4432109;32;20070;-74
2022/03/23 13:12:32;;;;;;;4.57;3.47;;;19.20;51.90;;;;;;4432018;32;20101;-74
2022/03/23 13:14:59;;;;;;;4.40;3.92;;;19.20;51.90;;;;;;4430885;32;20062;-74
2022/03/23 13:17:26;;;;;;;4.50;3.80;;;19.20;51.90;;;;;;4431901;32;20089;-74
2022/03/23 13:19:56;;;;;;;4.93;3.40;;;19.20;51.80;;;;;;4431971;32;20082;-74